sensor_id;sensor_type;location;lat;lon;timestamp;P1;durP1;ratioP1;P2;durP2;ratioP2
63394;SDS011;49531;-34.520;150.798;2024-01-11T00:01:47;11.27;;;8.82;;
63394;SDS011;49531;-34.520;150.798;2024-01-11T00:04:14;14.00;;;9.23;;
63394;SDS011;49531;-34.520;150.798;2024-01-11T00:06:42;13.10;;;9.20;;
63394;SDS011;49531;-34.520;150.798;2024-01-11T00:09:09;12.85;;;9.10;;
63394;SDS011;49531;-34.520;150.798;2024-01-11T00:11:36;11.18;;;8.88;;
63394;SDS011;49531;-34.520;150.798;2024-01-11T00:14:03;12.32;;;9.07;;
63394;SDS011;49531;-34.520;150.798;2024-01-11T00:16:30;13.52;;;9.40;;
63394;SDS011;49531;-34.520;150.798;2024-01-11T00:18:58;11.63;;;8.73;;
63394;SDS011;49531;-34.520;150.798;2024-01-11T00:21:26;12.55;;;9.25;;
63394;SDS011;49531;-34.520;150.798;2024-01-11T00:23:53;13.13;;;9.25;;
63394;SDS011;49531;-34.520;150.798;2024-01-11T00:26:20;16.35;;;9.10;;
63394;SDS011;49531;-34.520;150.798;2024-01-11T00:28:47;11.52;;;8.75;;
63394;SDS011;49531;-34.520;150.798;2024-01-11T00:31:14;12.65;;;8.65;;
63394;SDS011;49531;-34.520;150.798;2024-01-11T00:33:41;12.35;;;8.88;;
63394;SDS011;49531;-34.520;150.798;2024-01-11T00:36:09;13.45;;;9.10;;
63394;SDS011;49531;-34.520;150.798;2024-01-11T00:38:36;12.57;;;8.80;;
63394;SDS011;49531;-34.520;150.798;2024-01-11T00:41:03;13.75;;;8.23;;
63394;SDS011;49531;-34.520;150.798;2024-01-11T00:43:30;12.85;;;8.60;;
63394;SDS011;49531;-34.520;150.798;2024-01-11T00:45:57;14.05;;;8.32;;
63394;SDS011;49531;-34.520;150.798;2024-01-11T00:48:24;12.57;;;8.70;;
63394;SDS011;49531;-34.520;150.798;2024-01-11T00:50:51;11.30;;;8.10;;
63394;SDS011;49531;-34.520;150.798;2024-01-11T00:53:18;12.77;;;8.45;;
63394;SDS011;49531;-34.520;150.798;2024-01-11T00:55:46;14.05;;;8.55;;
63394;SDS011;49531;-34.520;150.798;2024-01-11T00:58:13;12.55;;;8.70;;
63394;SDS011;49531;-34.520;150.798;2024-01-11T01:00:40;11.30;;;8.23;;
63394;SDS011;49531;-34.520;150.798;2024-01-11T01:03:07;12.10;;;8.02;;
63394;SDS011;49531;-34.520;150.798;2024-01-11T01:05:37;14.05;;;8.60;;
63394;SDS011;49531;-34.520;150.798;2024-01-11T01:08:04;14.55;;;8.05;;
63394;SDS011;49531;-34.520;150.798;2024-01-11T01:10:34;11.88;;;8.05;;
63394;SDS011;49531;-34.520;150.798;2024-01-11T01:13:01;12.55;;;7.97;;
63394;SDS011;49531;-34.520;150.798;2024-01-11T01:15:28;9.45;;;7.10;;
63394;SDS011;49531;-34.520;150.798;2024-01-11T01:17:55;11.35;;;8.00;;
63394;SDS011;49531;-34.520;150.798;2024-01-11T01:20:22;14.00;;;7.72;;
63394;SDS011;49531;-34.520;150.798;2024-01-11T01:22:49;9.95;;;6.85;;
63394;SDS011;49531;-34.520;150.798;2024-01-11T01:25:16;13.60;;;7.85;;
63394;SDS011;49531;-34.520;150.798;2024-01-11T01:27:44;9.80;;;7.05;;
63394;SDS011;49531;-34.520;150.798;2024-01-11T01:30:11;10.35;;;7.35;;
63394;SDS011;49531;-34.520;150.798;2024-01-11T01:32:38;10.35;;;7.07;;
63394;SDS011;49531;-34.520;150.798;2024-01-11T01:35:05;11.63;;;7.00;;
63394;SDS011;49531;-34.520;150.798;2024-01-11T01:37:33;11.93;;;7.22;;
63394;SDS011;49531;-34.520;150.798;2024-01-11T01:40:00;11.10;;;7.15;;
63394;SDS011;49531;-34.520;150.798;2024-01-11T01:42:27;10.55;;;7.22;;
63394;SDS011;49531;-34.520;150.798;2024-01-11T01:44:55;9.77;;;6.97;;
63394;SDS011;49531;-34.520;150.798;2024-01-11T01:47:22;10.32;;;6.80;;
63394;SDS011;49531;-34.520;150.798;2024-01-11T01:49:49;11.15;;;6.85;;
63394;SDS011;49531;-34.520;150.798;2024-01-11T01:52:17;10.02;;;6.55;;
63394;SDS011;49531;-34.520;150.798;2024-01-11T01:54:45;9.93;;;6.20;;
63394;SDS011;49531;-34.520;150.798;2024-01-11T01:57:13;9.35;;;6.47;;
63394;SDS011;49531;-34.520;150.798;2024-01-11T01:59:42;9.13;;;6.57;;
63394;SDS011;49531;-34.520;150.798;2024-01-11T02:02:11;9.18;;;6.50;;
63394;SDS011;49531;-34.520;150.798;2024-01-11T02:04:42;10.65;;;6.72;;
63394;SDS011;49531;-34.520;150.798;2024-01-11T02:07:09;11.07;;;6.20;;
63394;SDS011;49531;-34.520;150.798;2024-01-11T02:09:37;10.90;;;6.82;;
63394;SDS011;49531;-34.520;150.798;2024-01-11T02:12:06;11.88;;;7.00;;
63394;SDS011;49531;-34.520;150.798;2024-01-11T02:14:39;9.43;;;6.30;;
63394;SDS011;49531;-34.520;150.798;2024-01-11T02:17:07;8.98;;;6.53;;
63394;SDS011;49531;-34.520;150.798;2024-01-11T02:19:34;9.70;;;6.72;;
63394;SDS011;49531;-34.520;150.798;2024-01-11T02:22:02;10.27;;;6.35;;
63394;SDS011;49531;-34.520;150.798;2024-01-11T02:24:37;8.02;;;5.95;;
63394;SDS011;49531;-34.520;150.798;2024-01-11T02:27:04;9.73;;;6.00;;
63394;SDS011;49531;-34.520;150.798;2024-01-11T02:29:31;10.98;;;6.43;;
63394;SDS011;49531;-34.520;150.798;2024-01-11T02:31:59;9.45;;;6.40;;
63394;SDS011;49531;-34.520;150.798;2024-01-11T02:34:27;9.73;;;6.13;;
63394;SDS011;49531;-34.520;150.798;2024-01-11T02:36:55;8.27;;;5.53;;
63394;SDS011;49531;-34.520;150.798;2024-01-11T02:39:23;8.70;;;5.40;;
63394;SDS011;49531;-34.520;150.798;2024-01-11T02:41:51;8.55;;;5.40;;
63394;SDS011;49531;-34.520;150.798;2024-01-11T02:44:19;8.07;;;5.30;;
63394;SDS011;49531;-34.520;150.798;2024-01-11T02:46:46;7.10;;;5.07;;
63394;SDS011;49531;-34.520;150.798;2024-01-11T02:49:13;6.15;;;4.80;;
63394;SDS011;49531;-34.520;150.798;2024-01-11T02:51:41;6.53;;;4.70;;
63394;SDS011;49531;-34.520;150.798;2024-01-11T02:54:08;6.22;;;4.90;;
63394;SDS011;49531;-34.520;150.798;2024-01-11T02:56:35;6.28;;;4.75;;
63394;SDS011;49531;-34.520;150.798;2024-01-11T02:59:02;7.05;;;4.60;;
63394;SDS011;49531;-34.520;150.798;2024-01-11T03:01:35;6.50;;;4.43;;
63394;SDS011;49531;-34.520;150.798;2024-01-11T03:04:02;5.63;;;4.25;;
63394;SDS011;49531;-34.520;150.798;2024-01-11T03:06:30;5.28;;;4.30;;
63394;SDS011;49531;-34.520;150.798;2024-01-11T03:08:57;5.10;;;4.03;;
63394;SDS011;49531;-34.520;150.798;2024-01-11T03:11:24;6.38;;;4.35;;
63394;SDS011;49531;-34.520;150.798;2024-01-11T03:13:52;5.63;;;4.20;;
63394;SDS011;49531;-34.520;150.798;2024-01-11T03:16:19;6.60;;;4.50;;
63394;SDS011;49531;-34.520;150.798;2024-01-11T03:18:46;5.22;;;4.20;;
63394;SDS011;49531;-34.520;150.798;2024-01-11T03:21:13;5.88;;;4.18;;
63394;SDS011;49531;-34.520;150.798;2024-01-11T03:23:40;6.50;;;4.30;;
63394;SDS011;49531;-34.520;150.798;2024-01-11T03:26:14;6.60;;;4.30;;
63394;SDS011;49531;-34.520;150.798;2024-01-11T03:28:44;5.72;;;3.95;;
63394;SDS011;49531;-34.520;150.798;2024-01-11T03:31:11;6.05;;;3.95;;
63394;SDS011;49531;-34.520;150.798;2024-01-11T03:33:38;6.18;;;3.83;;
63394;SDS011;49531;-34.520;150.798;2024-01-11T03:36:10;5.47;;;3.75;;
63394;SDS011;49531;-34.520;150.798;2024-01-11T03:38:38;6.57;;;4.00;;
63394;SDS011;49531;-34.520;150.798;2024-01-11T03:41:08;4.38;;;3.70;;
63394;SDS011;49531;-34.520;150.798;2024-01-11T03:43:36;4.78;;;3.40;;
63394;SDS011;49531;-34.520;150.798;2024-01-11T03:46:03;6.40;;;3.60;;
63394;SDS011;49531;-34.520;150.798;2024-01-11T03:48:31;8.10;;;3.60;;
63394;SDS011;49531;-34.520;150.798;2024-01-11T03:50:58;5.80;;;3.42;;
63394;SDS011;49531;-34.520;150.798;2024-01-11T03:53:25;9.38;;;3.75;;
63394;SDS011;49531;-34.520;150.798;2024-01-11T03:55:52;7.43;;;3.47;;
63394;SDS011;49531;-34.520;150.798;2024-01-11T03:58:19;9.27;;;3.63;;
63394;SDS011;49531;-34.520;150.798;2024-01-11T04:00:46;4.03;;;2.65;;
63394;SDS011;49531;-34.520;150.798;2024-01-11T04:03:13;4.82;;;2.88;;
63394;SDS011;49531;-34.520;150.798;2024-01-11T04:05:40;5.80;;;3.10;;
63394;SDS011;49531;-34.520;150.798;2024-01-11T04:08:08;5.53;;;3.13;;
63394;SDS011;49531;-34.520;150.798;2024-01-11T04:10:35;6.05;;;3.20;;
63394;SDS011;49531;-34.520;150.798;2024-01-11T04:13:02;4.65;;;2.92;;
63394;SDS011;49531;-34.520;150.798;2024-01-11T04:15:29;5.07;;;2.92;;
63394;SDS011;49531;-34.520;150.798;2024-01-11T04:17:56;6.30;;;2.97;;
63394;SDS011;49531;-34.520;150.798;2024-01-11T04:20:23;4.15;;;2.63;;
63394;SDS011;49531;-34.520;150.798;2024-01-11T04:22:51;5.70;;;3.10;;
63394;SDS011;49531;-34.520;150.798;2024-01-11T04:32:13;8.18;;;3.10;;
63394;SDS011;49531;-34.520;150.798;2024-01-11T04:34:46;4.57;;;2.78;;
63394;SDS011;49531;-34.520;150.798;2024-01-11T04:37:23;7.22;;;3.00;;
63394;SDS011;49531;-34.520;150.798;2024-01-11T04:39:50;6.78;;;3.00;;
63394;SDS011;49531;-34.520;150.798;2024-01-11T04:42:27;5.97;;;2.83;;
63394;SDS011;49531;-34.520;150.798;2024-01-11T04:45:00;3.40;;;2.53;;
63394;SDS011;49531;-34.520;150.798;2024-01-11T04:47:33;5.95;;;2.50;;
63394;SDS011;49531;-34.520;150.798;2024-01-11T04:50:18;5.90;;;2.80;;
63394;SDS011;49531;-34.520;150.798;2024-01-11T04:53:06;4.13;;;2.60;;
63394;SDS011;49531;-34.520;150.798;2024-01-11T04:55:34;4.68;;;2.55;;
63394;SDS011;49531;-34.520;150.798;2024-01-11T05:00:56;3.67;;;2.60;;
63394;SDS011;49531;-34.520;150.798;2024-01-11T05:03:23;5.63;;;2.45;;
63394;SDS011;49531;-34.520;150.798;2024-01-11T05:05:51;3.28;;;2.25;;
63394;SDS011;49531;-34.520;150.798;2024-01-11T05:08:18;3.95;;;2.30;;
63394;SDS011;49531;-34.520;150.798;2024-01-11T05:10:45;4.82;;;2.40;;
63394;SDS011;49531;-34.520;150.798;2024-01-11T05:13:12;3.75;;;2.38;;
63394;SDS011;49531;-34.520;150.798;2024-01-11T05:15:39;4.47;;;2.45;;
63394;SDS011;49531;-34.520;150.798;2024-01-11T05:18:06;2.88;;;1.95;;
63394;SDS011;49531;-34.520;150.798;2024-01-11T05:20:33;4.18;;;2.33;;
63394;SDS011;49531;-34.520;150.798;2024-01-11T05:23:01;4.53;;;2.35;;
63394;SDS011;49531;-34.520;150.798;2024-01-11T05:25:29;4.88;;;2.22;;
63394;SDS011;49531;-34.520;150.798;2024-01-11T05:27:59;3.33;;;2.40;;
63394;SDS011;49531;-34.520;150.798;2024-01-11T05:30:27;6.15;;;2.35;;
63394;SDS011;49531;-34.520;150.798;2024-01-11T05:32:54;5.30;;;2.40;;
63394;SDS011;49531;-34.520;150.798;2024-01-11T05:35:22;3.53;;;2.30;;
63394;SDS011;49531;-34.520;150.798;2024-01-11T05:37:50;6.03;;;2.40;;
63394;SDS011;49531;-34.520;150.798;2024-01-11T05:40:17;3.25;;;2.10;;
63394;SDS011;49531;-34.520;150.798;2024-01-11T05:42:44;7.13;;;2.50;;
63394;SDS011;49531;-34.520;150.798;2024-01-11T05:45:11;3.10;;;1.92;;
63394;SDS011;49531;-34.520;150.798;2024-01-11T05:47:42;4.30;;;2.28;;
63394;SDS011;49531;-34.520;150.798;2024-01-11T05:50:10;6.03;;;2.40;;
63394;SDS011;49531;-34.520;150.798;2024-01-11T05:52:38;4.18;;;2.22;;
63394;SDS011;49531;-34.520;150.798;2024-01-11T05:55:05;5.85;;;2.20;;
63394;SDS011;49531;-34.520;150.798;2024-01-11T05:57:32;5.60;;;2.38;;
63394;SDS011;49531;-34.520;150.798;2024-01-11T05:59:59;4.93;;;2.30;;
63394;SDS011;49531;-34.520;150.798;2024-01-11T06:02:26;9.05;;;2.58;;
63394;SDS011;49531;-34.520;150.798;2024-01-11T06:04:54;5.80;;;2.47;;
63394;SDS011;49531;-34.520;150.798;2024-01-11T06:07:21;3.92;;;2.20;;
63394;SDS011;49531;-34.520;150.798;2024-01-11T06:09:48;6.60;;;2.60;;
63394;SDS011;49531;-34.520;150.798;2024-01-11T06:12:15;5.60;;;2.40;;
63394;SDS011;49531;-34.520;150.798;2024-01-11T06:14:42;5.47;;;2.67;;
63394;SDS011;49531;-34.520;150.798;2024-01-11T06:17:10;4.50;;;2.15;;
63394;SDS011;49531;-34.520;150.798;2024-01-11T06:19:37;4.97;;;2.55;;
63394;SDS011;49531;-34.520;150.798;2024-01-11T06:22:04;4.57;;;2.35;;
63394;SDS011;49531;-34.520;150.798;2024-01-11T06:24:31;4.53;;;2.45;;
63394;SDS011;49531;-34.520;150.798;2024-01-11T06:26:59;6.55;;;2.58;;
63394;SDS011;49531;-34.520;150.798;2024-01-11T06:29:26;4.60;;;2.25;;
63394;SDS011;49531;-34.520;150.798;2024-01-11T06:31:54;5.05;;;2.22;;
63394;SDS011;49531;-34.520;150.798;2024-01-11T06:34:21;4.22;;;2.50;;
63394;SDS011;49531;-34.520;150.798;2024-01-11T06:36:48;5.72;;;2.55;;
63394;SDS011;49531;-34.520;150.798;2024-01-11T06:39:15;5.32;;;2.45;;
63394;SDS011;49531;-34.520;150.798;2024-01-11T06:41:42;5.97;;;2.40;;
63394;SDS011;49531;-34.520;150.798;2024-01-11T06:44:09;5.57;;;2.30;;
63394;SDS011;49531;-34.520;150.798;2024-01-11T06:46:36;7.57;;;2.70;;
63394;SDS011;49531;-34.520;150.798;2024-01-11T06:49:07;5.15;;;2.35;;
63394;SDS011;49531;-34.520;150.798;2024-01-11T06:51:34;4.88;;;2.47;;
63394;SDS011;49531;-34.520;150.798;2024-01-11T06:54:01;5.22;;;2.28;;
63394;SDS011;49531;-34.520;150.798;2024-01-11T06:56:28;4.47;;;2.28;;
63394;SDS011;49531;-34.520;150.798;2024-01-11T06:58:56;4.13;;;2.10;;
63394;SDS011;49531;-34.520;150.798;2024-01-11T07:01:23;4.25;;;2.15;;
63394;SDS011;49531;-34.520;150.798;2024-01-11T07:03:51;6.10;;;2.17;;
63394;SDS011;49531;-34.520;150.798;2024-01-11T07:06:18;4.15;;;2.33;;
63394;SDS011;49531;-34.520;150.798;2024-01-11T07:08:45;6.57;;;2.40;;
63394;SDS011;49531;-34.520;150.798;2024-01-11T07:11:12;5.40;;;2.22;;
63394;SDS011;49531;-34.520;150.798;2024-01-11T07:13:39;6.70;;;2.60;;
63394;SDS011;49531;-34.520;150.798;2024-01-11T07:16:06;4.40;;;2.33;;
63394;SDS011;49531;-34.520;150.798;2024-01-11T07:18:33;5.15;;;2.35;;
63394;SDS011;49531;-34.520;150.798;2024-01-11T07:21:01;4.97;;;2.30;;
63394;SDS011;49531;-34.520;150.798;2024-01-11T07:23:28;5.65;;;2.08;;
63394;SDS011;49531;-34.520;150.798;2024-01-11T07:25:55;6.03;;;2.60;;
63394;SDS011;49531;-34.520;150.798;2024-01-11T07:28:22;4.63;;;2.03;;
63394;SDS011;49531;-34.520;150.798;2024-01-11T07:30:54;5.15;;;2.38;;
63394;SDS011;49531;-34.520;150.798;2024-01-11T07:33:21;6.00;;;2.25;;
63394;SDS011;49531;-34.520;150.798;2024-01-11T07:35:48;5.00;;;2.20;;
63394;SDS011;49531;-34.520;150.798;2024-01-11T07:38:16;4.20;;;2.10;;
63394;SDS011;49531;-34.520;150.798;2024-01-11T07:40:43;7.70;;;2.53;;
63394;SDS011;49531;-34.520;150.798;2024-01-11T07:43:10;6.53;;;2.50;;
63394;SDS011;49531;-34.520;150.798;2024-01-11T07:45:37;7.35;;;2.35;;
63394;SDS011;49531;-34.520;150.798;2024-01-11T07:48:05;5.05;;;2.25;;
63394;SDS011;49531;-34.520;150.798;2024-01-11T07:50:35;7.25;;;2.10;;
63394;SDS011;49531;-34.520;150.798;2024-01-11T07:53:02;4.50;;;2.35;;
63394;SDS011;49531;-34.520;150.798;2024-01-11T07:55:31;5.85;;;2.63;;
63394;SDS011;49531;-34.520;150.798;2024-01-11T07:57:58;5.75;;;2.40;;
63394;SDS011;49531;-34.520;150.798;2024-01-11T08:00:25;6.28;;;2.47;;
63394;SDS011;49531;-34.520;150.798;2024-01-11T08:02:52;7.43;;;2.65;;
63394;SDS011;49531;-34.520;150.798;2024-01-11T08:05:20;8.43;;;2.90;;
63394;SDS011;49531;-34.520;150.798;2024-01-11T08:07:47;6.50;;;3.17;;
63394;SDS011;49531;-34.520;150.798;2024-01-11T08:10:14;6.75;;;2.75;;
63394;SDS011;49531;-34.520;150.798;2024-01-11T08:12:41;7.60;;;2.70;;
63394;SDS011;49531;-34.520;150.798;2024-01-11T08:15:11;8.82;;;2.78;;
63394;SDS011;49531;-34.520;150.798;2024-01-11T08:17:43;6.30;;;2.72;;
63394;SDS011;49531;-34.520;150.798;2024-01-11T08:20:14;4.70;;;2.50;;
63394;SDS011;49531;-34.520;150.798;2024-01-11T08:22:41;7.68;;;2.80;;
63394;SDS011;49531;-34.520;150.798;2024-01-11T08:25:11;5.50;;;2.45;;
63394;SDS011;49531;-34.520;150.798;2024-01-11T08:27:39;7.40;;;2.65;;
63394;SDS011;49531;-34.520;150.798;2024-01-11T08:30:06;6.55;;;2.60;;
63394;SDS011;49531;-34.520;150.798;2024-01-11T08:32:33;5.90;;;2.63;;
63394;SDS011;49531;-34.520;150.798;2024-01-11T08:35:05;4.85;;;2.33;;
63394;SDS011;49531;-34.520;150.798;2024-01-11T08:37:34;5.95;;;2.45;;
63394;SDS011;49531;-34.520;150.798;2024-01-11T08:40:01;6.22;;;2.55;;
63394;SDS011;49531;-34.520;150.798;2024-01-11T08:42:30;6.38;;;2.40;;
63394;SDS011;49531;-34.520;150.798;2024-01-11T08:44:58;4.70;;;2.40;;
63394;SDS011;49531;-34.520;150.798;2024-01-11T08:47:32;4.80;;;2.28;;
63394;SDS011;49531;-34.520;150.798;2024-01-11T08:50:04;8.43;;;2.75;;
63394;SDS011;49531;-34.520;150.798;2024-01-11T08:52:32;8.25;;;2.65;;
63394;SDS011;49531;-34.520;150.798;2024-01-11T08:54:59;5.65;;;2.65;;
63394;SDS011;49531;-34.520;150.798;2024-01-11T08:57:27;6.47;;;2.65;;
63394;SDS011;49531;-34.520;150.798;2024-01-11T08:59:54;5.93;;;2.70;;
63394;SDS011;49531;-34.520;150.798;2024-01-11T09:02:21;6.85;;;2.50;;
63394;SDS011;49531;-34.520;150.798;2024-01-11T09:04:48;9.15;;;3.00;;
63394;SDS011;49531;-34.520;150.798;2024-01-11T09:07:16;5.20;;;2.40;;
63394;SDS011;49531;-34.520;150.798;2024-01-11T09:09:43;6.53;;;2.60;;
63394;SDS011;49531;-34.520;150.798;2024-01-11T09:12:11;4.40;;;2.30;;
63394;SDS011;49531;-34.520;150.798;2024-01-11T09:14:38;5.40;;;2.40;;
63394;SDS011;49531;-34.520;150.798;2024-01-11T09:17:05;4.72;;;2.30;;
63394;SDS011;49531;-34.520;150.798;2024-01-11T09:19:34;4.05;;;2.22;;
63394;SDS011;49531;-34.520;150.798;2024-01-11T09:22:03;4.45;;;2.40;;
63394;SDS011;49531;-34.520;150.798;2024-01-11T09:24:30;5.78;;;2.53;;
63394;SDS011;49531;-34.520;150.798;2024-01-11T09:26:57;4.88;;;2.50;;
63394;SDS011;49531;-34.520;150.798;2024-01-11T09:29:24;5.45;;;2.30;;
63394;SDS011;49531;-34.520;150.798;2024-01-11T09:31:53;4.85;;;2.30;;
63394;SDS011;49531;-34.520;150.798;2024-01-11T09:34:20;7.45;;;2.53;;
63394;SDS011;49531;-34.520;150.798;2024-01-11T09:36:47;5.70;;;2.33;;
63394;SDS011;49531;-34.520;150.798;2024-01-11T09:39:14;5.45;;;2.33;;
63394;SDS011;49531;-34.520;150.798;2024-01-11T09:41:42;6.70;;;2.42;;
63394;SDS011;49531;-34.520;150.798;2024-01-11T09:44:18;3.35;;;2.10;;
63394;SDS011;49531;-34.520;150.798;2024-01-11T09:46:46;4.45;;;2.30;;
63394;SDS011;49531;-34.520;150.798;2024-01-11T09:49:13;6.15;;;2.40;;
63394;SDS011;49531;-34.520;150.798;2024-01-11T09:51:43;5.68;;;2.33;;
63394;SDS011;49531;-34.520;150.798;2024-01-11T09:54:13;4.47;;;2.15;;
63394;SDS011;49531;-34.520;150.798;2024-01-11T09:56:42;5.50;;;2.30;;
63394;SDS011;49531;-34.520;150.798;2024-01-11T09:59:10;4.95;;;2.67;;
63394;SDS011;49531;-34.520;150.798;2024-01-11T10:01:38;3.28;;;2.15;;
63394;SDS011;49531;-34.520;150.798;2024-01-11T10:04:05;4.10;;;2.40;;
63394;SDS011;49531;-34.520;150.798;2024-01-11T10:06:32;9.43;;;2.58;;
63394;SDS011;49531;-34.520;150.798;2024-01-11T10:09:04;5.63;;;2.30;;
63394;SDS011;49531;-34.520;150.798;2024-01-11T10:11:31;5.45;;;2.33;;
63394;SDS011;49531;-34.520;150.798;2024-01-11T10:14:00;4.38;;;2.38;;
63394;SDS011;49531;-34.520;150.798;2024-01-11T10:16:27;6.70;;;2.50;;
63394;SDS011;49531;-34.520;150.798;2024-01-11T10:18:55;4.78;;;2.30;;
63394;SDS011;49531;-34.520;150.798;2024-01-11T10:21:26;4.50;;;2.20;;
63394;SDS011;49531;-34.520;150.798;2024-01-11T10:23:57;6.63;;;2.72;;
63394;SDS011;49531;-34.520;150.798;2024-01-11T10:26:25;4.25;;;2.40;;
63394;SDS011;49531;-34.520;150.798;2024-01-11T10:28:52;4.72;;;2.42;;
63394;SDS011;49531;-34.520;150.798;2024-01-11T10:31:19;5.75;;;2.40;;
63394;SDS011;49531;-34.520;150.798;2024-01-11T10:33:53;4.55;;;2.30;;
63394;SDS011;49531;-34.520;150.798;2024-01-11T10:36:20;5.25;;;2.35;;
63394;SDS011;49531;-34.520;150.798;2024-01-11T10:38:47;4.53;;;2.42;;
63394;SDS011;49531;-34.520;150.798;2024-01-11T10:41:16;4.75;;;2.30;;
63394;SDS011;49531;-34.520;150.798;2024-01-11T10:43:46;6.80;;;2.60;;
63394;SDS011;49531;-34.520;150.798;2024-01-11T10:46:15;5.72;;;2.20;;
63394;SDS011;49531;-34.520;150.798;2024-01-11T10:48:48;5.65;;;2.50;;
63394;SDS011;49531;-34.520;150.798;2024-01-11T10:51:22;4.80;;;2.35;;
63394;SDS011;49531;-34.520;150.798;2024-01-11T10:53:51;4.13;;;2.42;;
63394;SDS011;49531;-34.520;150.798;2024-01-11T10:56:19;5.88;;;2.40;;
63394;SDS011;49531;-34.520;150.798;2024-01-11T10:58:46;5.47;;;2.42;;
63394;SDS011;49531;-34.520;150.798;2024-01-11T11:01:14;5.65;;;2.38;;
63394;SDS011;49531;-34.520;150.798;2024-01-11T11:03:44;3.42;;;2.20;;
63394;SDS011;49531;-34.520;150.798;2024-01-11T11:06:13;6.25;;;2.75;;
63394;SDS011;49531;-34.520;150.798;2024-01-11T11:08:44;6.20;;;2.60;;
63394;SDS011;49531;-34.520;150.798;2024-01-11T11:11:13;5.43;;;2.28;;
63394;SDS011;49531;-34.520;150.798;2024-01-11T11:13:41;4.15;;;2.40;;
63394;SDS011;49531;-34.520;150.798;2024-01-11T11:16:14;5.80;;;2.30;;
63394;SDS011;49531;-34.520;150.798;2024-01-11T11:18:42;4.28;;;2.22;;
63394;SDS011;49531;-34.520;150.798;2024-01-11T11:21:09;5.07;;;2.45;;
63394;SDS011;49531;-34.520;150.798;2024-01-11T11:23:37;5.93;;;2.40;;
63394;SDS011;49531;-34.520;150.798;2024-01-11T11:26:05;6.95;;;2.78;;
63394;SDS011;49531;-34.520;150.798;2024-01-11T11:28:34;8.05;;;2.30;;
63394;SDS011;49531;-34.520;150.798;2024-01-11T11:31:02;8.60;;;2.35;;
63394;SDS011;49531;-34.520;150.798;2024-01-11T11:33:29;9.82;;;2.65;;
63394;SDS011;49531;-34.520;150.798;2024-01-11T11:35:57;7.22;;;2.53;;
63394;SDS011;49531;-34.520;150.798;2024-01-11T11:38:27;6.95;;;2.40;;
63394;SDS011;49531;-34.520;150.798;2024-01-11T11:40:58;6.63;;;2.58;;
63394;SDS011;49531;-34.520;150.798;2024-01-11T11:43:27;6.65;;;2.50;;
63394;SDS011;49531;-34.520;150.798;2024-01-11T11:45:55;5.90;;;2.33;;
63394;SDS011;49531;-34.520;150.798;2024-01-11T11:51:12;5.37;;;2.17;;
63394;SDS011;49531;-34.520;150.798;2024-01-11T11:53:42;5.80;;;2.42;;
63394;SDS011;49531;-34.520;150.798;2024-01-11T11:56:10;5.00;;;2.65;;
63394;SDS011;49531;-34.520;150.798;2024-01-11T11:58:47;4.63;;;2.30;;
63394;SDS011;49531;-34.520;150.798;2024-01-11T12:01:15;5.88;;;2.65;;
63394;SDS011;49531;-34.520;150.798;2024-01-11T12:03:43;3.80;;;2.17;;
63394;SDS011;49531;-34.520;150.798;2024-01-11T12:06:18;5.53;;;2.45;;
63394;SDS011;49531;-34.520;150.798;2024-01-11T12:08:48;4.63;;;2.50;;
63394;SDS011;49531;-34.520;150.798;2024-01-11T12:11:18;4.32;;;2.17;;
63394;SDS011;49531;-34.520;150.798;2024-01-11T12:13:48;3.45;;;2.10;;
63394;SDS011;49531;-34.520;150.798;2024-01-11T12:16:16;4.63;;;2.55;;
63394;SDS011;49531;-34.520;150.798;2024-01-11T12:18:44;5.00;;;2.15;;
63394;SDS011;49531;-34.520;150.798;2024-01-11T12:21:11;3.40;;;2.17;;
63394;SDS011;49531;-34.520;150.798;2024-01-11T12:23:38;5.32;;;2.50;;
63394;SDS011;49531;-34.520;150.798;2024-01-11T12:26:06;4.47;;;2.50;;
63394;SDS011;49531;-34.520;150.798;2024-01-11T12:28:38;3.72;;;2.33;;
63394;SDS011;49531;-34.520;150.798;2024-01-11T12:31:06;6.72;;;2.47;;
63394;SDS011;49531;-34.520;150.798;2024-01-11T12:33:33;7.93;;;2.50;;
63394;SDS011;49531;-34.520;150.798;2024-01-11T12:36:04;5.50;;;2.60;;
63394;SDS011;49531;-34.520;150.798;2024-01-11T12:38:33;3.83;;;2.10;;
63394;SDS011;49531;-34.520;150.798;2024-01-11T12:41:00;8.07;;;2.80;;
63394;SDS011;49531;-34.520;150.798;2024-01-11T12:43:29;7.50;;;2.60;;
63394;SDS011;49531;-34.520;150.798;2024-01-11T12:45:56;5.35;;;2.55;;
63394;SDS011;49531;-34.520;150.798;2024-01-11T12:48:23;8.40;;;2.72;;
63394;SDS011;49531;-34.520;150.798;2024-01-11T12:50:50;4.15;;;2.30;;
63394;SDS011;49531;-34.520;150.798;2024-01-11T12:53:19;3.90;;;2.58;;
63394;SDS011;49531;-34.520;150.798;2024-01-11T12:55:47;5.18;;;2.55;;
63394;SDS011;49531;-34.520;150.798;2024-01-11T12:58:19;5.22;;;2.40;;
63394;SDS011;49531;-34.520;150.798;2024-01-11T13:00:49;6.47;;;2.60;;
63394;SDS011;49531;-34.520;150.798;2024-01-11T13:03:17;5.97;;;2.40;;
63394;SDS011;49531;-34.520;150.798;2024-01-11T13:05:46;7.60;;;3.13;;
63394;SDS011;49531;-34.520;150.798;2024-01-11T13:08:13;4.57;;;2.30;;
63394;SDS011;49531;-34.520;150.798;2024-01-11T13:10:40;5.40;;;2.38;;
63394;SDS011;49531;-34.520;150.798;2024-01-11T13:13:08;7.63;;;2.75;;
63394;SDS011;49531;-34.520;150.798;2024-01-11T13:15:35;7.30;;;2.60;;
63394;SDS011;49531;-34.520;150.798;2024-01-11T13:18:04;6.00;;;2.55;;
63394;SDS011;49531;-34.520;150.798;2024-01-11T13:20:32;6.13;;;2.50;;
63394;SDS011;49531;-34.520;150.798;2024-01-11T13:23:17;7.63;;;2.67;;
63394;SDS011;49531;-34.520;150.798;2024-01-11T13:25:49;5.40;;;2.70;;
63394;SDS011;49531;-34.520;150.798;2024-01-11T13:28:17;3.95;;;2.30;;
63394;SDS011;49531;-34.520;150.798;2024-01-11T13:30:48;5.70;;;2.70;;
63394;SDS011;49531;-34.520;150.798;2024-01-11T13:33:15;5.82;;;2.67;;
63394;SDS011;49531;-34.520;150.798;2024-01-11T13:35:43;4.57;;;2.50;;
63394;SDS011;49531;-34.520;150.798;2024-01-11T13:38:10;6.82;;;2.67;;
63394;SDS011;49531;-34.520;150.798;2024-01-11T13:40:38;4.13;;;2.30;;
63394;SDS011;49531;-34.520;150.798;2024-01-11T13:43:05;6.25;;;2.50;;
63394;SDS011;49531;-34.520;150.798;2024-01-11T13:45:32;5.68;;;2.85;;
63394;SDS011;49531;-34.520;150.798;2024-01-11T13:48:03;7.20;;;2.70;;
63394;SDS011;49531;-34.520;150.798;2024-01-11T13:50:31;6.82;;;2.70;;
63394;SDS011;49531;-34.520;150.798;2024-01-11T13:52:58;5.90;;;2.65;;
63394;SDS011;49531;-34.520;150.798;2024-01-11T13:55:29;3.55;;;2.20;;
63394;SDS011;49531;-34.520;150.798;2024-01-11T13:58:03;5.93;;;2.60;;
63394;SDS011;49531;-34.520;150.798;2024-01-11T14:00:30;4.13;;;2.30;;
63394;SDS011;49531;-34.520;150.798;2024-01-11T14:02:57;4.90;;;2.60;;
63394;SDS011;49531;-34.520;150.798;2024-01-11T14:05:24;4.00;;;2.50;;
63394;SDS011;49531;-34.520;150.798;2024-01-11T14:07:52;7.95;;;2.92;;
63394;SDS011;49531;-34.520;150.798;2024-01-11T14:12:51;5.30;;;2.83;;
63394;SDS011;49531;-34.520;150.798;2024-01-11T14:15:18;4.88;;;2.50;;
63394;SDS011;49531;-34.520;150.798;2024-01-11T14:17:45;6.15;;;2.70;;
63394;SDS011;49531;-34.520;150.798;2024-01-11T14:20:13;6.15;;;2.70;;
63394;SDS011;49531;-34.520;150.798;2024-01-11T14:22:41;4.38;;;2.60;;
63394;SDS011;49531;-34.520;150.798;2024-01-11T14:25:12;5.65;;;2.60;;
63394;SDS011;49531;-34.520;150.798;2024-01-11T14:27:40;4.80;;;2.65;;